createdAt,value
2019-01-26T00:01:41.482Z,4.94
2019-01-26T00:04:12.090Z,4.78
2019-01-26T00:06:41.726Z,4.71
2019-01-26T00:09:11.485Z,4.72
2019-01-26T00:11:41.045Z,4.87
2019-01-26T00:14:12.516Z,4.72
2019-01-26T00:16:42.075Z,4.77
2019-01-26T00:19:11.644Z,4.83
2019-01-26T00:21:41.120Z,4.85
2019-01-26T00:24:10.710Z,4.84
2019-01-26T00:26:40.268Z,4.90
2019-01-26T00:29:09.884Z,5.04
2019-01-26T00:31:39.360Z,5.17
2019-01-26T00:34:08.865Z,5.11
2019-01-26T00:36:38.442Z,5.20
2019-01-26T00:39:09.202Z,5.11
2019-01-26T00:41:38.747Z,5.11
2019-01-26T00:44:09.200Z,5.11
2019-01-26T00:46:38.769Z,5.07
2019-01-26T00:49:08.352Z,5.16
2019-01-26T00:51:37.839Z,5.09
2019-01-26T00:54:07.393Z,5.10
2019-01-26T00:56:36.917Z,5.22
2019-01-26T00:59:06.484Z,5.30
2019-01-26T01:01:36.068Z,5.33
2019-01-26T01:04:05.972Z,5.24
2019-01-26T01:06:35.602Z,5.42
2019-01-26T01:09:08.359Z,5.39
2019-01-26T01:11:37.934Z,5.30
2019-01-26T01:14:07.717Z,5.35
2019-01-26T01:16:37.297Z,5.26
2019-01-26T01:19:06.909Z,5.32
2019-01-26T01:21:36.402Z,5.25
2019-01-26T01:24:05.963Z,5.33
2019-01-26T01:26:35.632Z,5.43
2019-01-26T01:29:05.341Z,5.36
2019-01-26T01:31:34.845Z,5.36
2019-01-26T01:34:04.520Z,5.35
2019-01-26T01:36:34.069Z,5.32
2019-01-26T01:39:05.120Z,5.43
2019-01-26T01:41:34.708Z,5.40
2019-01-26T01:44:04.401Z,5.52
2019-01-26T01:46:33.892Z,5.39
2019-01-26T01:49:03.372Z,5.44
2019-01-26T01:51:32.929Z,5.56
2019-01-26T01:54:02.447Z,5.44
2019-01-26T01:56:31.932Z,5.46
2019-01-26T01:59:01.479Z,5.46
2019-01-26T02:01:31.091Z,5.46
2019-01-26T02:04:00.667Z,5.53
2019-01-26T02:06:30.150Z,5.50
2019-01-26T02:08:59.720Z,5.61
2019-01-26T02:11:29.206Z,5.48
2019-01-26T02:13:58.708Z,5.44
2019-01-26T02:16:28.244Z,5.51
2019-01-26T02:18:57.736Z,5.49
2019-01-26T02:21:27.227Z,5.54
2019-01-26T02:23:56.708Z,5.43
2019-01-26T02:26:26.208Z,5.61
2019-01-26T02:28:55.706Z,5.69
2019-01-26T02:31:25.195Z,5.56
2019-01-26T02:33:54.766Z,5.65
2019-01-26T02:36:24.344Z,5.71
2019-01-26T02:38:53.827Z,5.67
2019-01-26T02:41:23.404Z,5.68
2019-01-26T02:43:52.954Z,5.73
2019-01-26T02:46:22.506Z,5.59
2019-01-26T02:48:51.998Z,5.62
2019-01-26T02:51:21.587Z,5.73
2019-01-26T02:53:51.075Z,5.65
2019-01-26T02:56:20.616Z,5.85
2019-01-26T02:58:50.174Z,5.80
2019-01-26T03:01:19.791Z,5.72
2019-01-26T03:03:49.276Z,5.62
2019-01-26T03:06:18.782Z,5.89
2019-01-26T03:08:48.294Z,5.88
2019-01-26T03:11:17.846Z,5.93
2019-01-26T03:13:47.326Z,5.87
2019-01-26T03:16:16.895Z,6.01
2019-01-26T03:18:46.373Z,5.98
2019-01-26T03:21:15.947Z,5.91
2019-01-26T03:23:45.496Z,6.01
2019-01-26T03:26:14.984Z,5.95
2019-01-26T03:28:44.469Z,6.00
2019-01-26T03:31:13.955Z,5.93
2019-01-26T03:33:43.439Z,5.95
2019-01-26T03:36:12.924Z,5.94
2019-01-26T03:38:42.405Z,6.11
2019-01-26T03:41:12.005Z,5.96
2019-01-26T03:43:41.467Z,6.04
2019-01-26T03:46:11.098Z,6.20
2019-01-26T03:48:40.608Z,5.99
2019-01-26T03:51:10.104Z,5.99
2019-01-26T03:53:39.670Z,6.11
2019-01-26T03:56:09.224Z,6.10
2019-01-26T03:58:38.796Z,6.16
2019-01-26T04:01:08.289Z,6.15
2019-01-26T04:03:38.009Z,6.21
2019-01-26T04:06:07.573Z,6.09
2019-01-26T04:08:37.046Z,6.20
2019-01-26T04:11:06.627Z,6.18
2019-01-26T04:13:36.254Z,6.24
2019-01-26T04:16:05.849Z,6.16
2019-01-26T04:18:35.414Z,6.24
2019-01-26T04:21:04.978Z,6.08
2019-01-26T04:23:34.537Z,6.17
2019-01-26T04:26:04.128Z,6.24
2019-01-26T04:28:33.614Z,6.24
2019-01-26T04:31:03.094Z,6.43
2019-01-26T04:33:32.598Z,6.44
2019-01-26T04:36:02.082Z,6.41
2019-01-26T04:38:31.662Z,6.43
2019-01-26T04:41:01.161Z,6.44
2019-01-26T04:43:30.678Z,6.48
2019-01-26T04:46:00.229Z,6.35
2019-01-26T04:48:29.722Z,6.45
2019-01-26T04:50:59.284Z,6.54
2019-01-26T04:53:28.783Z,6.59
2019-01-26T04:55:58.318Z,6.50
2019-01-26T04:58:27.806Z,6.50
2019-01-26T05:00:57.331Z,6.60
2019-01-26T05:03:26.821Z,6.53
2019-01-26T05:05:56.416Z,6.43
2019-01-26T05:08:25.913Z,6.31
2019-01-26T05:10:55.435Z,6.50
2019-01-26T05:13:24.922Z,6.56
2019-01-26T05:15:54.502Z,6.68
2019-01-26T05:18:23.979Z,6.47
2019-01-26T05:20:53.487Z,6.48
2019-01-26T05:23:23.071Z,6.55
2019-01-26T05:25:52.623Z,6.58
2019-01-26T05:28:22.139Z,6.50
2019-01-26T05:30:51.639Z,6.59
2019-01-26T05:33:21.176Z,6.46
2019-01-26T05:35:50.629Z,6.39
2019-01-26T05:38:20.140Z,6.67
2019-01-26T05:40:49.627Z,6.62
2019-01-26T05:43:19.136Z,6.71
2019-01-26T05:45:48.624Z,6.50
2019-01-26T05:48:18.142Z,6.70
2019-01-26T05:50:47.644Z,6.59
2019-01-26T05:53:17.138Z,6.62
2019-01-26T05:55:46.649Z,6.72
2019-01-26T05:58:16.130Z,6.84
2019-01-26T06:00:45.653Z,6.66
2019-01-26T06:03:15.224Z,6.62
2019-01-26T06:05:44.723Z,6.66
2019-01-26T06:08:14.228Z,6.70
2019-01-26T06:10:43.710Z,6.59
2019-01-26T06:13:13.195Z,6.76
2019-01-26T06:15:42.730Z,6.62
2019-01-26T06:18:12.269Z,6.64
2019-01-26T06:20:41.755Z,6.70
2019-01-26T06:23:11.260Z,6.98
2019-01-26T06:25:40.753Z,6.79
2019-01-26T06:28:10.267Z,6.73
2019-01-26T06:30:39.815Z,6.73
2019-01-26T06:33:09.444Z,6.89
2019-01-26T06:35:38.956Z,6.86
2019-01-26T06:38:08.616Z,6.93
2019-01-26T06:40:38.179Z,6.76
2019-01-26T06:43:07.825Z,6.96
2019-01-26T06:45:37.375Z,6.89
2019-01-26T06:48:07.038Z,6.99
2019-01-26T06:50:36.529Z,6.84
2019-01-26T06:53:06.255Z,6.99
2019-01-26T06:55:35.917Z,6.91
2019-01-26T06:58:05.552Z,6.99
2019-01-26T07:00:35.039Z,6.95
2019-01-26T07:03:04.602Z,6.66
2019-01-26T07:05:33.972Z,6.91
2019-01-26T07:08:03.496Z,6.74
2019-01-26T07:10:32.992Z,6.74
2019-01-26T07:13:02.562Z,7.03
2019-01-26T07:15:32.206Z,7.05
2019-01-26T07:18:01.840Z,6.89
2019-01-26T07:20:31.476Z,6.92
2019-01-26T07:23:01.116Z,6.93
2019-01-26T07:25:30.689Z,7.07
2019-01-26T07:28:00.180Z,6.96
2019-01-26T07:30:29.854Z,7.06
2019-01-26T07:32:59.337Z,6.93
2019-01-26T07:35:28.894Z,6.92
2019-01-26T07:37:58.467Z,7.07
2019-01-26T07:40:28.035Z,7.12
2019-01-26T07:42:57.569Z,7.07
2019-01-26T07:45:27.125Z,7.06
2019-01-26T07:47:56.695Z,7.09
2019-01-26T07:50:28.023Z,7.09
2019-01-26T07:52:57.588Z,7.09
2019-01-26T07:55:27.153Z,7.21
2019-01-26T07:57:56.644Z,7.10
2019-01-26T08:00:29.165Z,7.00
2019-01-26T08:02:58.778Z,7.19
2019-01-26T08:05:28.281Z,7.28
2019-01-26T08:07:57.849Z,7.11
2019-01-26T08:10:28.034Z,7.18
2019-01-26T08:12:57.712Z,7.17
2019-01-26T08:15:30.879Z,7.14
2019-01-26T08:18:00.459Z,7.08
2019-01-26T08:20:30.136Z,7.18
2019-01-26T08:23:00.697Z,7.26
2019-01-26T08:25:30.200Z,7.22
2019-01-26T08:27:59.766Z,7.11
2019-01-26T08:30:29.476Z,7.23
2019-01-26T08:32:59.038Z,7.14
2019-01-26T08:35:28.592Z,7.19
2019-01-26T08:37:58.097Z,7.21
2019-01-26T08:40:27.677Z,7.00
2019-01-26T08:42:57.180Z,7.20
2019-01-26T08:45:26.674Z,7.20
2019-01-26T08:47:56.239Z,7.16
2019-01-26T08:50:26.234Z,7.05
2019-01-26T08:52:55.815Z,7.29
2019-01-26T08:55:25.324Z,7.11
2019-01-26T08:57:54.805Z,7.18
2019-01-26T09:00:29.157Z,7.19
2019-01-26T09:02:58.529Z,7.15
2019-01-26T09:05:29.719Z,7.25
2019-01-26T09:07:59.219Z,7.17
2019-01-26T09:10:28.795Z,7.21
2019-01-26T09:12:58.281Z,7.21
2019-01-26T09:15:27.772Z,7.34
2019-01-26T09:17:57.324Z,7.46
2019-01-26T09:20:26.849Z,7.44
2019-01-26T09:22:56.362Z,7.63
2019-01-26T09:25:25.920Z,7.49
2019-01-26T09:27:55.543Z,7.38
2019-01-26T09:30:25.192Z,7.35
2019-01-26T09:32:54.694Z,7.35
2019-01-26T09:35:24.207Z,7.43
2019-01-26T09:37:53.768Z,7.36
2019-01-26T09:40:24.504Z,7.56
2019-01-26T09:42:54.159Z,7.79
2019-01-26T09:45:24.080Z,7.44
2019-01-26T09:47:53.638Z,7.64
2019-01-26T09:50:23.201Z,7.79
2019-01-26T09:52:52.718Z,7.73
2019-01-26T09:55:23.069Z,7.86
2019-01-26T09:57:52.670Z,7.80
2019-01-26T10:00:25.835Z,7.80
2019-01-26T10:02:55.456Z,7.82
2019-01-26T10:05:25.107Z,7.67
2019-01-26T10:07:54.663Z,7.94
2019-01-26T10:10:24.497Z,7.97
2019-01-26T10:12:54.032Z,8.09
2019-01-26T10:15:30.907Z,8.32
2019-01-26T10:18:00.460Z,8.51
2019-01-26T10:20:39.993Z,8.51
2019-01-26T10:23:09.647Z,8.51
2019-01-26T10:25:39.270Z,8.40
2019-01-26T10:28:08.933Z,8.56
2019-01-26T10:30:44.034Z,8.57
2019-01-26T10:33:13.599Z,8.51
2019-01-26T10:35:53.603Z,8.52
2019-01-26T10:38:23.137Z,8.42
2019-01-26T10:40:52.491Z,8.50
2019-01-26T10:43:23.980Z,8.42
2019-01-26T10:45:53.482Z,8.44
2019-01-26T10:48:23.106Z,8.56
2019-01-26T10:50:52.600Z,8.63
2019-01-26T10:53:22.119Z,8.64
2019-01-26T10:55:51.675Z,8.62
2019-01-26T10:58:21.202Z,9.03
2019-01-26T11:00:50.700Z,8.96
2019-01-26T11:03:20.317Z,8.94
2019-01-26T11:05:49.890Z,8.91
2019-01-26T11:08:19.465Z,8.90
2019-01-26T11:10:48.979Z,9.02
2019-01-26T11:13:18.482Z,9.02
2019-01-26T11:15:48.060Z,8.98
2019-01-26T11:18:17.544Z,9.02
2019-01-26T11:20:47.035Z,8.99
2019-01-26T11:23:16.664Z,9.02
2019-01-26T11:25:46.243Z,8.98
2019-01-26T11:28:15.767Z,8.92
2019-01-26T11:30:45.342Z,8.91
2019-01-26T11:33:14.837Z,8.93
2019-01-26T11:35:44.336Z,8.73
2019-01-26T11:38:13.904Z,8.73
2019-01-26T11:40:43.414Z,8.89
2019-01-26T11:43:12.999Z,8.89
2019-01-26T11:45:47.193Z,9.07
2019-01-26T11:48:27.035Z,8.93
2019-01-26T11:50:58.187Z,8.82
2019-01-26T11:53:27.686Z,9.15
2019-01-26T11:56:04.591Z,9.14
2019-01-26T11:58:34.201Z,9.24
2019-01-26T12:01:08.347Z,9.25
2019-01-26T12:03:42.511Z,9.21
2019-01-26T12:06:13.823Z,9.07
2019-01-26T12:08:43.361Z,9.15
2019-01-26T12:11:12.811Z,9.29
2019-01-26T12:13:42.377Z,9.14
2019-01-26T12:16:11.999Z,9.47
2019-01-26T12:18:41.521Z,9.49
2019-01-26T12:21:11.242Z,9.71
2019-01-26T12:23:40.752Z,9.78
2019-01-26T12:26:10.313Z,9.91
2019-01-26T12:28:39.879Z,10.08
2019-01-26T12:31:09.436Z,9.83
2019-01-26T12:33:39.032Z,9.73
2019-01-26T12:36:09.385Z,9.61
2019-01-26T12:38:38.970Z,9.84
2019-01-26T12:41:08.507Z,9.42
2019-01-26T12:43:38.091Z,9.22
2019-01-26T12:46:07.603Z,9.46
2019-01-26T12:48:37.242Z,9.36
2019-01-26T12:51:06.885Z,9.31
2019-01-26T12:53:37.383Z,9.24
2019-01-26T12:56:07.210Z,9.46
2019-01-26T12:58:36.768Z,9.39
2019-01-26T13:01:06.881Z,9.26
2019-01-26T13:03:36.463Z,9.18
2019-01-26T13:06:06.263Z,8.67
2019-01-26T13:08:35.839Z,8.82
2019-01-26T13:11:13.971Z,8.94
2019-01-26T13:13:43.545Z,9.01
2019-01-26T13:16:13.774Z,8.92
2019-01-26T13:18:43.336Z,8.98
2019-01-26T13:21:12.889Z,8.98
2019-01-26T13:23:42.396Z,9.17
2019-01-26T13:26:12.090Z,9.40
2019-01-26T13:28:41.606Z,9.40
2019-01-26T13:31:11.177Z,9.62
2019-01-26T13:33:40.720Z,9.33
2019-01-26T13:36:10.429Z,9.35
2019-01-26T13:38:39.918Z,9.66
2019-01-26T13:41:09.552Z,9.97
2019-01-26T13:43:39.035Z,10.05
2019-01-26T13:46:08.609Z,9.76
2019-01-26T13:48:38.145Z,9.88
2019-01-26T13:51:12.918Z,9.93
2019-01-26T13:53:38.894Z,9.77
2019-01-26T13:56:08.573Z,10.02
2019-01-26T13:58:38.019Z,9.92
2019-01-26T14:01:07.646Z,9.83
2019-01-26T14:03:37.264Z,9.89
2019-01-26T14:06:07.271Z,9.75
2019-01-26T14:08:36.759Z,9.71
2019-01-26T14:11:08.055Z,9.68
2019-01-26T14:13:37.533Z,9.39
2019-01-26T14:16:07.153Z,9.63
2019-01-26T14:18:36.764Z,9.49
2019-01-26T14:21:06.422Z,9.39
2019-01-26T14:23:36.055Z,9.39
2019-01-26T14:26:05.712Z,9.61
2019-01-26T14:28:35.334Z,9.47
2019-01-26T14:31:05.120Z,9.37
2019-01-26T14:33:34.681Z,9.11
2019-01-26T14:36:04.297Z,9.38
2019-01-26T14:38:33.851Z,9.23
2019-01-26T14:41:03.421Z,9.07
2019-01-26T14:43:32.915Z,9.21
2019-01-26T14:46:02.497Z,9.18
2019-01-26T14:48:31.998Z,9.22
2019-01-26T14:51:01.574Z,9.06
2019-01-26T14:53:31.200Z,8.92
2019-01-26T14:56:00.708Z,8.66
2019-01-26T14:58:30.253Z,8.80
2019-01-26T15:00:59.750Z,8.69
2019-01-26T15:03:29.299Z,8.70
2019-01-26T15:06:00.503Z,8.84
2019-01-26T15:08:30.131Z,8.88
2019-01-26T15:10:59.689Z,8.79
2019-01-26T15:13:29.165Z,9.02
2019-01-26T15:15:58.852Z,8.88
2019-01-26T15:18:28.481Z,8.89
2019-01-26T15:20:59.043Z,8.87
2019-01-26T15:23:28.525Z,8.67
2019-01-26T15:25:58.121Z,8.65
2019-01-26T15:28:27.744Z,8.63
2019-01-26T15:30:57.275Z,8.55
2019-01-26T15:33:27.039Z,8.44
2019-01-26T15:35:56.661Z,8.50
2019-01-26T15:38:26.178Z,8.39
2019-01-26T15:40:55.726Z,8.30
2019-01-26T15:43:25.258Z,8.30
2019-01-26T15:45:54.754Z,8.39
2019-01-26T15:48:24.328Z,8.34
2019-01-26T15:50:53.915Z,8.38
2019-01-26T15:53:23.412Z,8.26
2019-01-26T15:55:53.081Z,8.46
2019-01-26T15:58:22.691Z,8.41
2019-01-26T16:00:52.213Z,8.38
2019-01-26T16:03:21.691Z,8.43
2019-01-26T16:05:51.185Z,8.42
2019-01-26T16:08:20.721Z,8.54
2019-01-26T16:10:50.211Z,8.59
2019-01-26T16:13:19.712Z,8.42
2019-01-26T16:15:49.243Z,8.40
2019-01-26T16:18:18.885Z,8.27
2019-01-26T16:20:48.649Z,8.25
2019-01-26T16:23:18.294Z,8.06
2019-01-26T16:25:47.779Z,7.78
2019-01-26T16:28:17.286Z,7.74
2019-01-26T16:30:46.782Z,7.73
2019-01-26T16:33:16.331Z,7.75
2019-01-26T16:35:45.839Z,7.57
2019-01-26T16:38:15.397Z,7.69
2019-01-26T16:40:45.027Z,7.66
2019-01-26T16:43:14.592Z,7.49
2019-01-26T16:45:44.197Z,7.39
2019-01-26T16:48:14.039Z,7.48
2019-01-26T16:50:43.595Z,7.48
2019-01-26T16:53:13.234Z,7.47
2019-01-26T16:55:42.779Z,7.59
2019-01-26T16:58:12.434Z,7.54
2019-01-26T17:00:46.669Z,7.42
2019-01-26T17:03:16.235Z,7.43
2019-01-26T17:05:45.901Z,7.32
2019-01-26T17:08:15.462Z,7.36
2019-01-26T17:10:46.024Z,7.14
2019-01-26T17:13:15.658Z,7.24
2019-01-26T17:15:45.200Z,7.16
2019-01-26T17:18:14.857Z,7.19
2019-01-26T17:20:44.711Z,7.13
2019-01-26T17:23:14.269Z,7.13
2019-01-26T17:25:43.879Z,7.09
2019-01-26T17:28:13.575Z,7.08
2019-01-26T17:30:43.985Z,7.07
2019-01-26T17:33:13.595Z,6.99
2019-01-26T17:35:43.271Z,6.97
2019-01-26T17:38:12.756Z,7.02
2019-01-26T17:40:42.329Z,6.92
2019-01-26T17:43:11.819Z,7.00
2019-01-26T17:45:41.367Z,6.96
2019-01-26T17:48:12.037Z,6.97
2019-01-26T17:50:42.273Z,7.06
2019-01-26T17:53:12.065Z,7.01
2019-01-26T17:55:41.630Z,7.08
2019-01-26T17:58:11.278Z,7.09
2019-01-26T18:00:48.302Z,7.10
2019-01-26T18:03:17.900Z,7.11
2019-01-26T18:05:47.463Z,7.28
2019-01-26T18:08:17.010Z,7.19
2019-01-26T18:10:46.692Z,7.22
2019-01-26T18:13:16.362Z,7.20
2019-01-26T18:15:46.051Z,7.10
2019-01-26T18:18:15.701Z,7.06
2019-01-26T18:20:49.107Z,7.20
2019-01-26T18:23:18.254Z,7.24
2019-01-26T18:25:47.834Z,7.29
2019-01-26T18:28:17.345Z,7.19
2019-01-26T18:30:47.009Z,7.18
2019-01-26T18:33:16.543Z,7.26
2019-01-26T18:35:46.153Z,7.36
2019-01-26T18:38:15.751Z,7.47
2019-01-26T18:40:45.323Z,7.36
2019-01-26T18:43:14.875Z,7.37
2019-01-26T18:45:44.461Z,7.39
2019-01-26T18:48:15.405Z,7.48
2019-01-26T18:50:48.607Z,7.43
2019-01-26T18:53:18.163Z,7.37
2019-01-26T18:55:47.697Z,7.46
2019-01-26T18:58:17.256Z,7.56
2019-01-26T19:00:48.698Z,7.47
2019-01-26T19:03:28.987Z,7.58
2019-01-26T19:06:00.000Z,7.53
2019-01-26T19:08:29.635Z,7.45
2019-01-26T19:10:59.178Z,7.46
2019-01-26T19:13:28.683Z,7.48
2019-01-26T19:15:58.186Z,7.55
2019-01-26T19:18:27.801Z,7.53
2019-01-26T19:21:03.107Z,7.63
2019-01-26T19:23:28.803Z,7.48
2019-01-26T19:25:58.447Z,7.53
2019-01-26T19:28:27.954Z,7.57
2019-01-26T19:30:57.617Z,7.70
2019-01-26T19:33:27.262Z,7.61
2019-01-26T19:35:56.790Z,7.64
2019-01-26T19:38:26.359Z,7.50
2019-01-26T19:40:55.874Z,7.61
2019-01-26T19:43:25.509Z,7.76
2019-01-26T19:45:55.060Z,7.79
2019-01-26T19:48:24.621Z,7.62
2019-01-26T19:50:54.194Z,7.59
2019-01-26T19:53:23.830Z,7.60
2019-01-26T19:55:53.465Z,7.68
2019-01-26T19:58:23.040Z,7.70
2019-01-26T20:00:52.676Z,7.62
2019-01-26T20:03:22.312Z,7.59
2019-01-26T20:05:51.856Z,7.74
2019-01-26T20:08:21.416Z,7.82
2019-01-26T20:10:51.022Z,7.72
2019-01-26T20:13:20.688Z,7.64
2019-01-26T20:15:50.398Z,7.73
2019-01-26T20:18:19.969Z,7.67
2019-01-26T20:20:49.589Z,7.80
2019-01-26T20:23:19.124Z,7.80
2019-01-26T20:25:48.775Z,7.65
2019-01-26T20:28:18.262Z,7.81
2019-01-26T20:30:47.913Z,7.85
2019-01-26T20:33:17.602Z,7.60
2019-01-26T20:35:47.134Z,7.70
2019-01-26T20:38:16.705Z,7.72
2019-01-26T20:40:46.260Z,7.70
2019-01-26T20:43:15.872Z,7.78
2019-01-26T20:45:45.507Z,7.56
2019-01-26T20:48:15.225Z,7.46
2019-01-26T20:50:44.801Z,7.40
2019-01-26T20:53:14.457Z,7.55
2019-01-26T20:55:44.086Z,7.47
2019-01-26T20:58:13.645Z,7.62
2019-01-26T21:00:43.153Z,7.59
2019-01-26T21:03:12.625Z,7.56
2019-01-26T21:05:42.188Z,7.63
2019-01-26T21:08:12.207Z,7.63
2019-01-26T21:10:41.701Z,7.65
2019-01-26T21:13:16.311Z,7.69
2019-01-26T21:15:42.707Z,7.71
2019-01-26T21:18:12.334Z,7.74
2019-01-26T21:20:41.927Z,7.69
2019-01-26T21:23:11.408Z,7.70
2019-01-26T21:25:40.972Z,7.58
2019-01-26T21:28:10.455Z,7.52
2019-01-26T21:30:40.124Z,7.42
2019-01-26T21:33:09.714Z,7.52
2019-01-26T21:35:39.308Z,7.39
2019-01-26T21:38:08.948Z,7.34
2019-01-26T21:40:38.570Z,7.30
2019-01-26T21:43:08.052Z,7.29
2019-01-26T21:45:37.626Z,7.28
2019-01-26T21:48:07.539Z,7.30
2019-01-26T21:50:37.194Z,7.36
2019-01-26T21:53:06.846Z,7.38
2019-01-26T21:55:36.317Z,7.39
2019-01-26T21:58:06.291Z,7.42
2019-01-26T22:00:35.900Z,7.43
2019-01-26T22:03:05.819Z,7.41
2019-01-26T22:05:35.377Z,7.41
2019-01-26T22:08:05.291Z,7.45
2019-01-26T22:10:35.708Z,7.40
2019-01-26T22:13:05.636Z,7.44
2019-01-26T22:15:35.250Z,7.42
2019-01-26T22:18:05.188Z,7.49
2019-01-26T22:20:34.744Z,7.46
2019-01-26T22:23:04.334Z,7.42
2019-01-26T22:25:33.980Z,7.34
2019-01-26T22:28:03.585Z,7.34
2019-01-26T22:30:35.299Z,7.20
2019-01-26T22:33:05.223Z,7.13
2019-01-26T22:35:34.864Z,7.19
2019-01-26T22:38:04.526Z,7.23
2019-01-26T22:40:36.568Z,7.10
2019-01-26T22:43:06.488Z,7.10
2019-01-26T22:45:36.288Z,7.14
2019-01-26T22:48:05.928Z,7.19
2019-01-26T22:50:35.561Z,7.15
2019-01-26T22:53:05.223Z,7.23
2019-01-26T22:55:34.887Z,7.33
2019-01-26T22:58:04.568Z,7.33
2019-01-26T23:00:49.653Z,7.45
2019-01-26T23:03:23.074Z,7.50
2019-01-26T23:06:39.794Z,7.38
2019-01-26T23:09:25.618Z,7.39
2019-01-26T23:12:19.360Z,7.44
2019-01-26T23:15:08.164Z,7.39
2019-01-26T23:18:08.677Z,7.40
2019-01-26T23:20:48.569Z,7.46
2019-01-26T23:23:45.387Z,7.48
2019-01-26T23:26:22.182Z,7.41
2019-01-26T23:29:04.861Z,7.50
2019-01-26T23:31:34.417Z,7.54
2019-01-26T23:34:05.267Z,7.48
2019-01-26T23:36:34.821Z,7.49
2019-01-26T23:39:06.505Z,7.54
2019-01-26T23:41:36.064Z,7.55
2019-01-26T23:44:05.690Z,7.54
2019-01-26T23:46:35.189Z,7.49
2019-01-26T23:49:04.782Z,7.60
2019-01-26T23:51:34.455Z,7.58
2019-01-26T23:54:04.429Z,7.62
2019-01-26T23:56:33.919Z,7.58
2019-01-26T23:59:03.414Z,7.67
